createdAt,value
2023-01-09T00:01:44.841Z,2.10
2023-01-09T00:04:13.002Z,2.20
2023-01-09T00:06:42.527Z,2.57
2023-01-09T00:09:10.977Z,2.43
2023-01-09T00:11:38.281Z,3.13
2023-01-09T00:14:05.492Z,3.30
2023-01-09T00:16:32.635Z,3.20
2023-01-09T00:19:04.330Z,3.20
2023-01-09T00:21:36.435Z,2.83
2023-01-09T00:24:06.537Z,2.70
2023-01-09T00:26:38.366Z,2.80
2023-01-09T00:29:10.231Z,2.50
2023-01-09T00:31:44.482Z,1.90
2023-01-09T00:34:14.390Z,2.00
2023-01-09T00:36:41.856Z,1.70
2023-01-09T00:39:09.032Z,1.70
2023-01-09T00:41:43.125Z,1.60
2023-01-09T00:44:18.276Z,1.50
2023-01-09T00:46:51.467Z,1.50
2023-01-09T00:49:21.888Z,1.47
2023-01-09T00:51:54.747Z,1.07
2023-01-09T00:54:24.479Z,1.30
2023-01-09T00:56:51.789Z,1.00
2023-01-09T00:59:21.452Z,1.23
2023-01-09T01:01:48.733Z,1.07
2023-01-09T01:04:34.275Z,1.13
2023-01-09T01:07:19.917Z,0.87
2023-01-09T01:09:47.015Z,1.20
2023-01-09T01:12:14.220Z,1.00
2023-01-09T01:14:43.534Z,1.13
2023-01-09T01:17:10.739Z,1.30
2023-01-09T01:19:37.940Z,1.00
2023-01-09T01:22:05.056Z,1.00
2023-01-09T01:24:32.226Z,0.83
2023-01-09T01:26:59.359Z,1.17
2023-01-09T01:29:26.870Z,0.97
2023-01-09T01:31:56.514Z,1.27
2023-01-09T01:34:29.168Z,1.37
2023-01-09T01:36:56.227Z,1.10
2023-01-09T01:39:25.781Z,1.17
2023-01-09T01:41:55.163Z,1.00
2023-01-09T01:45:02.416Z,1.10
2023-01-09T01:47:45.543Z,0.70
2023-01-09T01:50:26.173Z,1.00
2023-01-09T01:53:00.037Z,1.03
2023-01-09T01:55:27.249Z,0.77
2023-01-09T01:58:01.061Z,0.80
2023-01-09T02:00:38.083Z,1.10
2023-01-09T02:03:07.589Z,1.33
2023-01-09T02:05:39.172Z,0.90
2023-01-09T02:08:08.119Z,1.00
2023-01-09T02:10:39.377Z,1.10
2023-01-09T02:13:10.181Z,0.80
2023-01-09T02:15:55.093Z,0.97
2023-01-09T02:18:46.320Z,1.00
2023-01-09T02:21:28.412Z,0.90
2023-01-09T02:24:23.017Z,1.00
2023-01-09T02:27:19.090Z,0.90
2023-01-09T02:30:23.608Z,1.17
2023-01-09T02:33:12.610Z,0.80
2023-01-09T02:35:51.919Z,0.70
2023-01-09T02:38:42.931Z,0.67
2023-01-09T02:41:10.021Z,0.73
2023-01-09T02:43:39.845Z,0.90
2023-01-09T02:46:20.242Z,1.10
2023-01-09T02:48:51.385Z,1.00
2023-01-09T02:51:40.609Z,0.57
2023-01-09T02:54:37.151Z,0.63
2023-01-09T02:57:22.978Z,0.90
2023-01-09T03:00:10.598Z,0.70
2023-01-09T03:02:47.069Z,1.03
2023-01-09T03:05:36.286Z,0.80
2023-01-09T03:08:33.977Z,1.20
2023-01-09T03:11:07.681Z,0.90
2023-01-09T03:14:01.378Z,0.90
2023-01-09T03:16:33.918Z,1.00
2023-01-09T03:19:07.645Z,0.80
2023-01-09T03:21:35.549Z,0.70
2023-01-09T03:24:03.278Z,0.90
2023-01-09T03:26:31.126Z,0.90
2023-01-09T03:28:59.446Z,0.73
2023-01-09T03:31:26.544Z,0.87
2023-01-09T03:33:56.547Z,1.00
2023-01-09T03:36:26.834Z,1.10
2023-01-09T03:38:58.161Z,1.10
2023-01-09T03:41:25.279Z,0.90
2023-01-09T03:43:54.918Z,1.20
2023-01-09T03:46:26.696Z,1.07
2023-01-09T03:48:56.037Z,0.97
2023-01-09T03:51:25.265Z,0.70
2023-01-09T03:53:54.715Z,1.07
2023-01-09T03:56:25.633Z,1.20
2023-01-09T03:58:53.670Z,0.93
2023-01-09T04:01:23.105Z,1.10
2023-01-09T04:03:50.328Z,0.93
2023-01-09T04:06:19.513Z,1.37
2023-01-09T04:08:46.776Z,1.00
2023-01-09T04:11:14.201Z,1.30
2023-01-09T04:13:41.389Z,0.90
2023-01-09T04:16:09.213Z,1.50
2023-01-09T04:18:36.418Z,1.30
2023-01-09T04:21:03.664Z,1.13
2023-01-09T04:23:32.947Z,1.03
2023-01-09T04:26:00.131Z,1.40
2023-01-09T04:28:27.266Z,1.43
2023-01-09T04:30:54.433Z,1.50
2023-01-09T04:33:23.845Z,1.10
2023-01-09T04:35:50.937Z,1.20
2023-01-09T04:38:18.335Z,1.10
2023-01-09T04:40:48.493Z,1.57
2023-01-09T04:43:20.345Z,1.20
2023-01-09T04:45:49.738Z,1.63
2023-01-09T04:48:19.369Z,1.10
2023-01-09T04:50:52.025Z,1.17
2023-01-09T04:53:19.197Z,1.37
2023-01-09T04:55:48.790Z,1.83
2023-01-09T04:58:18.411Z,1.33
2023-01-09T05:00:48.747Z,1.47
2023-01-09T05:03:18.897Z,1.30
2023-01-09T05:05:50.432Z,1.77
2023-01-09T05:08:22.383Z,1.73
2023-01-09T05:10:51.549Z,1.47
2023-01-09T05:13:18.671Z,1.40
2023-01-09T05:15:48.235Z,1.90
2023-01-09T05:18:15.843Z,1.73
2023-01-09T05:20:45.506Z,1.60
2023-01-09T05:23:14.868Z,1.60
2023-01-09T05:25:41.997Z,1.60
2023-01-09T05:28:09.159Z,1.70
2023-01-09T05:30:36.767Z,1.80
2023-01-09T05:33:04.003Z,1.77
2023-01-09T05:35:31.186Z,1.63
2023-01-09T05:38:00.956Z,1.63
2023-01-09T05:40:40.129Z,1.60
2023-01-09T05:43:07.972Z,1.30
2023-01-09T05:45:39.883Z,1.37
2023-01-09T05:48:11.735Z,1.93
2023-01-09T05:50:38.972Z,1.77
2023-01-09T05:53:08.799Z,1.70
2023-01-09T05:55:36.185Z,1.50
2023-01-09T05:58:05.645Z,1.47
2023-01-09T06:00:32.833Z,1.97
2023-01-09T06:03:00.147Z,1.60
2023-01-09T06:05:27.403Z,1.60
2023-01-09T06:07:54.527Z,1.20
2023-01-09T06:10:21.649Z,1.17
2023-01-09T06:12:50.753Z,1.40
2023-01-09T06:15:20.866Z,1.40
2023-01-09T06:17:50.472Z,1.30
2023-01-09T06:20:20.005Z,1.67
2023-01-09T06:22:52.083Z,1.60
2023-01-09T06:25:24.236Z,1.27
2023-01-09T06:27:54.262Z,1.20
2023-01-09T06:30:21.403Z,1.20
2023-01-09T06:32:49.615Z,2.23
2023-01-09T06:35:22.552Z,1.70
2023-01-09T06:37:52.719Z,1.33
2023-01-09T06:40:22.610Z,1.40
2023-01-09T06:42:50.166Z,1.00
2023-01-09T06:45:19.677Z,1.23
2023-01-09T06:47:50.131Z,1.20
2023-01-09T06:50:19.911Z,1.03
2023-01-09T06:52:47.280Z,1.47
2023-01-09T06:55:17.707Z,1.13
2023-01-09T06:57:45.083Z,1.20
2023-01-09T07:00:14.857Z,1.37
2023-01-09T07:02:42.124Z,1.30
2023-01-09T07:05:11.552Z,1.00
2023-01-09T07:07:39.749Z,1.00
2023-01-09T07:10:07.871Z,0.93
2023-01-09T07:12:35.131Z,1.20
2023-01-09T07:15:05.249Z,1.10
2023-01-09T07:17:32.889Z,1.10
2023-01-09T07:20:00.788Z,1.17
2023-01-09T07:22:30.279Z,1.20
2023-01-09T07:24:57.442Z,1.33
2023-01-09T07:27:26.792Z,1.10
2023-01-09T07:30:01.104Z,1.00
2023-01-09T07:32:28.245Z,1.10
2023-01-09T07:34:55.423Z,1.00
2023-01-09T07:37:24.993Z,1.00
2023-01-09T07:39:52.257Z,0.90
2023-01-09T07:42:19.460Z,1.00
2023-01-09T07:44:46.664Z,1.00
2023-01-09T07:47:16.084Z,1.00
2023-01-09T07:49:47.875Z,0.77
2023-01-09T07:52:15.136Z,1.20
2023-01-09T07:54:42.266Z,1.00
2023-01-09T07:57:11.622Z,1.10
2023-01-09T07:59:38.797Z,1.17
2023-01-09T08:02:09.761Z,0.80
2023-01-09T08:04:39.599Z,1.10
2023-01-09T08:07:08.926Z,1.50
2023-01-09T08:09:38.494Z,1.33
2023-01-09T08:12:08.848Z,1.27
2023-01-09T08:14:39.108Z,0.93
2023-01-09T08:17:09.491Z,1.20
2023-01-09T08:19:39.109Z,1.90
2023-01-09T08:22:11.056Z,1.43
2023-01-09T08:24:38.286Z,1.20
2023-01-09T08:27:05.426Z,1.30
2023-01-09T08:29:32.743Z,1.30
2023-01-09T08:31:59.997Z,1.10
2023-01-09T08:34:32.619Z,1.37
2023-01-09T08:36:59.802Z,1.27
2023-01-09T08:39:31.495Z,1.33
2023-01-09T08:42:17.180Z,1.57
2023-01-09T08:45:07.405Z,1.30
2023-01-09T08:47:36.983Z,1.17
2023-01-09T08:50:07.344Z,1.37
2023-01-09T08:52:37.010Z,1.30
2023-01-09T08:55:04.417Z,1.03
2023-01-09T08:57:31.683Z,0.90
2023-01-09T08:59:58.912Z,0.80
2023-01-09T09:02:29.833Z,1.10
2023-01-09T09:04:59.485Z,1.07
2023-01-09T09:07:26.865Z,0.87
2023-01-09T09:09:56.730Z,0.90
2023-01-09T09:12:24.270Z,0.83
2023-01-09T09:15:10.176Z,0.80
2023-01-09T09:17:37.481Z,0.60
2023-01-09T09:20:05.247Z,0.53
2023-01-09T09:22:32.595Z,0.50
2023-01-09T09:25:02.546Z,0.43
2023-01-09T09:27:33.093Z,0.70
2023-01-09T09:30:00.509Z,0.60
2023-01-09T09:32:27.651Z,0.77
2023-01-09T09:34:56.942Z,0.57
2023-01-09T09:37:26.668Z,0.43
2023-01-09T09:39:57.928Z,0.60
2023-01-09T09:43:05.653Z,0.50
2023-01-09T09:46:04.767Z,0.50
2023-01-09T09:48:45.649Z,0.60
2023-01-09T09:51:21.705Z,0.43
2023-01-09T09:54:01.031Z,0.43
2023-01-09T09:56:32.650Z,0.40
2023-01-09T09:59:07.820Z,0.40
2023-01-09T10:01:43.087Z,0.57
2023-01-09T10:04:17.733Z,0.60
2023-01-09T10:06:52.787Z,0.60
2023-01-09T10:09:29.544Z,0.60
2023-01-09T10:12:04.019Z,0.37
2023-01-09T10:14:31.798Z,1.03
2023-01-09T10:17:29.075Z,0.60
2023-01-09T10:20:22.419Z,0.70
2023-01-09T10:22:58.460Z,0.80
2023-01-09T10:26:00.568Z,0.93
2023-01-09T10:28:49.850Z,0.67
2023-01-09T10:31:30.131Z,0.67
2023-01-09T10:34:09.512Z,0.70
2023-01-09T10:37:00.197Z,0.73
2023-01-09T10:39:43.728Z,0.70
2023-01-09T10:42:25.983Z,0.90
2023-01-09T10:45:05.373Z,0.73
2023-01-09T10:47:42.822Z,0.60
2023-01-09T10:50:28.065Z,0.63
2023-01-09T10:52:59.299Z,0.60
2023-01-09T10:55:36.355Z,0.63
2023-01-09T10:58:14.439Z,0.80
2023-01-09T11:00:43.866Z,0.60
2023-01-09T11:03:18.609Z,0.70
2023-01-09T11:05:51.553Z,0.80
2023-01-09T11:08:23.233Z,0.70
2023-01-09T11:10:53.624Z,0.90
2023-01-09T11:13:24.449Z,0.87
2023-01-09T11:16:06.632Z,0.70
2023-01-09T11:18:54.375Z,0.90
2023-01-09T11:21:38.246Z,0.80
2023-01-09T11:24:23.030Z,0.77
2023-01-09T11:26:54.557Z,0.77
2023-01-09T11:29:28.923Z,0.73
2023-01-09T11:32:04.228Z,0.90
2023-01-09T11:34:33.325Z,0.63
2023-01-09T11:37:11.611Z,0.90
2023-01-09T11:39:47.108Z,1.00
2023-01-09T11:42:48.047Z,1.00
2023-01-09T11:45:32.233Z,0.83
2023-01-09T11:48:00.110Z,0.80
2023-01-09T11:50:31.376Z,1.00
2023-01-09T11:53:25.167Z,1.23
2023-01-09T11:56:14.371Z,1.00
2023-01-09T11:58:44.149Z,1.13
2023-01-09T12:01:47.848Z,0.97
2023-01-09T12:04:28.900Z,1.07
2023-01-09T12:07:28.243Z,1.20
2023-01-09T12:10:07.950Z,0.80
2023-01-09T12:12:53.244Z,0.97
2023-01-09T12:15:44.595Z,1.20
2023-01-09T12:18:29.367Z,0.97
2023-01-09T12:21:13.026Z,1.00
2023-01-09T12:24:07.951Z,1.07
2023-01-09T12:27:14.989Z,1.20
2023-01-09T12:29:47.892Z,1.23
2023-01-09T12:32:46.974Z,1.20
2023-01-09T12:35:38.864Z,1.13
2023-01-09T12:38:25.903Z,1.20
2023-01-09T12:40:59.357Z,1.13
2023-01-09T12:43:33.770Z,1.30
2023-01-09T12:46:26.431Z,1.10
2023-01-09T12:49:21.885Z,1.57
2023-01-09T12:52:39.391Z,1.53
2023-01-09T12:55:20.259Z,1.43
2023-01-09T12:57:51.329Z,1.67
2023-01-09T13:00:26.780Z,1.80
2023-01-09T13:03:12.555Z,1.63
2023-01-09T13:05:46.068Z,1.90
2023-01-09T13:08:38.532Z,1.50
2023-01-09T13:11:19.472Z,1.67
2023-01-09T13:13:55.915Z,1.90
2023-01-09T13:16:49.185Z,1.70
2023-01-09T13:19:39.516Z,1.67
2023-01-09T13:22:08.024Z,1.73
2023-01-09T13:25:05.784Z,1.93
2023-01-09T13:27:39.705Z,1.70
2023-01-09T13:30:45.648Z,1.47
2023-01-09T13:33:23.952Z,1.80
2023-01-09T13:35:58.854Z,2.07
2023-01-09T13:38:31.352Z,2.00
2023-01-09T13:41:44.275Z,1.90
2023-01-09T13:44:18.855Z,2.20
2023-01-09T13:46:52.203Z,1.63
2023-01-09T13:49:40.461Z,1.90
2023-01-09T13:52:28.568Z,2.00
2023-01-09T13:55:00.640Z,1.40
2023-01-09T13:57:36.728Z,1.93
2023-01-09T14:00:13.151Z,1.70
2023-01-09T14:03:09.482Z,1.87
2023-01-09T14:05:36.692Z,1.53
2023-01-09T14:08:24.471Z,2.47
2023-01-09T14:11:01.039Z,2.10
2023-01-09T14:13:43.726Z,2.30
2023-01-09T14:16:24.507Z,2.07
2023-01-09T14:19:06.195Z,2.00
2023-01-09T14:21:57.440Z,1.70
2023-01-09T14:24:46.600Z,2.70
2023-01-09T14:27:51.320Z,2.40
2023-01-09T14:30:28.010Z,2.10
2023-01-09T14:33:19.894Z,2.60
2023-01-09T14:36:13.853Z,2.07
2023-01-09T14:38:50.456Z,2.10
2023-01-09T14:41:46.009Z,2.00
2023-01-09T14:44:25.690Z,2.40
2023-01-09T14:46:54.578Z,1.90
2023-01-09T14:49:31.820Z,2.30
2023-01-09T14:52:08.077Z,2.10
2023-01-09T14:54:40.123Z,2.00
2023-01-09T14:57:27.590Z,2.07
2023-01-09T15:00:01.207Z,2.00
2023-01-09T15:02:33.741Z,2.37
2023-01-09T15:05:09.832Z,1.93
2023-01-09T15:07:44.427Z,1.90
2023-01-09T15:10:24.470Z,2.70
2023-01-09T15:12:54.757Z,1.70
2023-01-09T15:15:28.788Z,2.20
2023-01-09T15:18:07.808Z,2.00
2023-01-09T15:20:35.564Z,1.93
2023-01-09T15:23:05.842Z,1.63
2023-01-09T15:25:39.274Z,1.63
2023-01-09T15:28:32.686Z,1.90
2023-01-09T15:31:24.828Z,2.27
2023-01-09T15:33:55.132Z,1.63
2023-01-09T15:36:25.598Z,1.43
2023-01-09T15:38:54.482Z,1.77
2023-01-09T15:41:45.476Z,1.50
2023-01-09T15:44:20.404Z,2.03
2023-01-09T15:46:50.224Z,1.40
2023-01-09T15:49:20.553Z,1.50
2023-01-09T15:51:48.952Z,1.27
2023-01-09T15:54:20.928Z,1.67
2023-01-09T15:56:48.088Z,1.70
2023-01-09T15:59:29.819Z,1.63
2023-01-09T16:02:24.632Z,1.60
2023-01-09T16:04:55.649Z,1.67
2023-01-09T16:07:22.834Z,1.50
2023-01-09T16:09:52.875Z,1.50
2023-01-09T16:12:27.059Z,1.30
2023-01-09T16:15:00.163Z,1.60
2023-01-09T16:17:31.871Z,1.70
2023-01-09T16:20:23.987Z,1.23
2023-01-09T16:22:56.066Z,1.90
2023-01-09T16:25:34.498Z,1.40
2023-01-09T16:28:23.252Z,1.60
2023-01-09T16:31:09.242Z,1.40
2023-01-09T16:33:46.357Z,1.50
2023-01-09T16:36:16.990Z,1.50
2023-01-09T16:38:47.310Z,1.87
2023-01-09T16:41:40.022Z,1.60
2023-01-09T16:44:11.986Z,1.70
2023-01-09T16:46:43.616Z,1.57
2023-01-09T16:49:22.711Z,2.00
2023-01-09T16:51:51.329Z,1.70
2023-01-09T16:54:18.818Z,1.50
2023-01-09T16:56:49.234Z,1.80
2023-01-09T16:59:26.072Z,1.67
2023-01-09T17:01:54.292Z,1.87
2023-01-09T17:04:23.702Z,2.03
2023-01-09T17:06:53.888Z,1.90
2023-01-09T17:09:23.656Z,1.87
2023-01-09T17:11:52.678Z,1.40
2023-01-09T17:14:19.926Z,2.07
2023-01-09T17:16:49.184Z,1.97
2023-01-09T17:19:19.045Z,2.03
2023-01-09T17:21:46.731Z,1.83
2023-01-09T17:24:33.243Z,1.70
2023-01-09T17:27:21.643Z,1.80
2023-01-09T17:29:51.250Z,1.70
2023-01-09T17:32:18.704Z,1.80
2023-01-09T17:34:45.856Z,1.87
2023-01-09T17:37:18.117Z,2.00
2023-01-09T17:39:47.523Z,1.93
2023-01-09T17:42:14.757Z,1.47
2023-01-09T17:44:44.043Z,1.37
2023-01-09T17:47:17.294Z,1.10
2023-01-09T17:49:49.361Z,0.80
2023-01-09T17:52:19.021Z,0.60
2023-01-09T17:54:50.705Z,0.43
2023-01-09T17:57:23.074Z,0.60
2023-01-09T17:59:52.667Z,0.50
2023-01-09T18:02:25.019Z,0.40
2023-01-09T18:04:52.307Z,1.20
2023-01-09T18:07:20.688Z,1.60
2023-01-09T18:09:47.999Z,1.17
2023-01-09T18:12:15.249Z,1.10
2023-01-09T18:14:42.888Z,0.90
2023-01-09T18:17:13.083Z,0.80
2023-01-09T18:19:40.445Z,0.70
2023-01-09T18:22:07.620Z,0.90
2023-01-09T18:24:35.105Z,0.80
2023-01-09T18:27:02.327Z,1.07
2023-01-09T18:29:31.534Z,1.67
2023-01-09T18:32:00.962Z,2.40
2023-01-09T18:34:30.527Z,2.30
2023-01-09T18:36:59.887Z,1.90
2023-01-09T18:39:32.616Z,2.33
2023-01-09T18:41:59.777Z,2.20
2023-01-09T18:44:29.205Z,2.23
2023-01-09T18:46:56.443Z,1.83
2023-01-09T18:49:25.758Z,2.20
2023-01-09T18:51:52.933Z,2.43
2023-01-09T18:54:25.497Z,2.87
2023-01-09T18:56:57.444Z,3.03
2023-01-09T18:59:27.038Z,2.50
2023-01-09T19:01:54.293Z,2.80
2023-01-09T19:04:23.726Z,2.40
2023-01-09T19:06:56.155Z,2.10
2023-01-09T19:09:23.359Z,2.53
2023-01-09T19:11:50.578Z,1.63
2023-01-09T19:14:20.106Z,1.80
2023-01-09T19:16:47.364Z,1.70
2023-01-09T19:19:16.663Z,1.73
2023-01-09T19:21:45.525Z,1.07
2023-01-09T19:24:14.986Z,2.10
2023-01-09T19:26:44.466Z,1.33
2023-01-09T19:29:15.334Z,2.37
2023-01-09T19:31:42.618Z,1.30
2023-01-09T19:34:12.404Z,1.50
2023-01-09T19:36:43.822Z,1.40
2023-01-09T19:39:11.429Z,1.33
2023-01-09T19:41:42.024Z,1.60
2023-01-09T19:44:09.527Z,1.40
2023-01-09T19:46:36.917Z,1.47
2023-01-09T19:49:07.426Z,1.70
2023-01-09T19:51:34.694Z,1.67
2023-01-09T19:56:35.548Z,2.00
2023-01-09T19:59:05.981Z,1.60
2023-01-09T20:01:36.107Z,2.97
2023-01-09T20:04:13.308Z,1.80
2023-01-09T20:06:43.802Z,1.73
2023-01-09T20:09:18.040Z,1.77
2023-01-09T20:11:45.478Z,1.50
2023-01-09T20:14:17.133Z,1.60
2023-01-09T20:16:44.779Z,1.80
2023-01-09T20:19:15.600Z,1.40
2023-01-09T20:21:49.253Z,1.73
2023-01-09T20:24:16.923Z,1.67
2023-01-09T20:26:48.577Z,1.60
2023-01-09T20:29:16.848Z,1.70
2023-01-09T20:31:46.908Z,1.60
2023-01-09T20:34:15.417Z,1.60
2023-01-09T20:36:44.848Z,1.53
2023-01-09T20:39:14.815Z,1.40
2023-01-09T20:41:44.286Z,1.80
2023-01-09T20:44:13.609Z,1.50
2023-01-09T20:46:44.748Z,1.30
2023-01-09T20:49:13.636Z,1.33
2023-01-09T20:51:43.666Z,1.57
2023-01-09T20:54:13.517Z,1.77
2023-01-09T20:56:40.972Z,2.00
2023-01-09T20:59:16.963Z,1.47
2023-01-09T21:01:46.868Z,2.33
2023-01-09T21:04:14.306Z,2.50
2023-01-09T21:06:42.558Z,2.20
2023-01-09T21:09:12.270Z,2.33
2023-01-09T21:11:39.387Z,2.23
2023-01-09T21:14:06.787Z,2.17
2023-01-09T21:16:38.649Z,1.90
2023-01-09T21:19:05.871Z,1.93
2023-01-09T21:21:35.566Z,2.47
2023-01-09T21:24:08.206Z,2.50
2023-01-09T21:26:40.061Z,2.60
2023-01-09T21:29:13.077Z,2.10
2023-01-09T21:31:44.129Z,2.37
2023-01-09T21:34:14.723Z,2.50
2023-01-09T21:36:43.306Z,2.37
2023-01-09T21:39:10.510Z,2.40
2023-01-09T21:41:58.345Z,2.57
2023-01-09T21:44:46.413Z,2.20
2023-01-09T21:47:16.052Z,2.53
2023-01-09T21:49:44.440Z,2.60
2023-01-09T21:52:14.635Z,2.93
2023-01-09T21:54:44.456Z,2.60
2023-01-09T21:57:14.104Z,2.50
2023-01-09T21:59:41.671Z,2.67
2023-01-09T22:02:17.054Z,3.00
2023-01-09T22:04:49.205Z,2.87
2023-01-09T22:07:16.612Z,3.00
2023-01-09T22:09:44.675Z,3.07
2023-01-09T22:12:13.101Z,2.87
2023-01-09T22:14:40.349Z,3.57
2023-01-09T22:17:09.807Z,3.03
2023-01-09T22:19:37.040Z,3.10
2023-01-09T22:22:08.429Z,3.47
2023-01-09T22:24:35.706Z,3.20
2023-01-09T22:27:03.090Z,2.77
2023-01-09T22:29:30.342Z,2.93
2023-01-09T22:31:59.733Z,3.13
2023-01-09T22:34:29.801Z,3.33
2023-01-09T22:36:59.589Z,3.77
2023-01-09T22:39:31.412Z,3.40
2023-01-09T22:42:01.180Z,3.40
2023-01-09T22:44:28.390Z,3.47
2023-01-09T22:46:58.494Z,3.70
2023-01-09T22:49:28.228Z,3.97
2023-01-09T22:51:59.597Z,3.40
2023-01-09T22:54:26.759Z,3.40
2023-01-09T22:56:53.932Z,2.87
2023-01-09T22:59:21.060Z,2.80
2023-01-09T23:01:48.217Z,3.03
2023-01-09T23:04:17.824Z,3.40
2023-01-09T23:06:51.093Z,3.30
2023-01-09T23:09:20.642Z,3.10
2023-01-09T23:12:05.534Z,3.20
2023-01-09T23:14:38.382Z,2.50
2023-01-09T23:17:09.693Z,2.87
2023-01-09T23:19:37.649Z,3.17
2023-01-09T23:22:05.582Z,2.67
2023-01-09T23:24:37.598Z,2.87
2023-01-09T23:27:07.745Z,2.73
2023-01-09T23:29:38.498Z,2.60
2023-01-09T23:32:07.354Z,2.37
2023-01-09T23:34:34.591Z,3.13
2023-01-09T23:37:08.883Z,2.50
2023-01-09T23:39:38.415Z,3.23
2023-01-09T23:42:24.267Z,3.33
2023-01-09T23:44:51.445Z,2.83
2023-01-09T23:47:18.692Z,2.77
2023-01-09T23:49:45.902Z,3.20
2023-01-09T23:52:13.059Z,2.83
2023-01-09T23:54:40.218Z,2.93
2023-01-09T23:57:07.557Z,2.20
2023-01-09T23:59:35.452Z,2.60
